Bellevue, NE (68147)

2:47 PM CST on December 28, 2014 (GMT -0600)
Sunrise Subdivision, Bellevue, NE | Change Station
CLOSE
Current Station
Personal Weather Station
Location: Bellevue, NE
Elevation: 1171 ft
Nearby Weather Stations

Elev 1171 ft 41.17 °N, 95.95 °W | Updated 2 minutes ago

Partly Cloudy
Partly Cloudy
33.9 °F
Feels Like 34 °F
N
2.0
Wind Variable Wind from SSW
Gusts 2.0 mph

Today
High -- | Low -- °F
--% Chance of Precip.
Yesterday
High -- | Low -- °F
Precip. -- in
7:48 AM 5:02 PM
Waxing Crescent, 51% visible
Pressure 30.17 in
Visibility 10.0 miles
Clouds Clear
Windchill 34 °F
Dew Point 24 °F
Humidity 66%
Rainfall 0.00 in
Snow Depth Not available.
UV 2 out of 12
Pollen .10 out of 12
Air Quality Not available.
Flu Activity Not available.
METAR KOFF 281958Z AUTO 17004KT 10SM CLR 00/M06 A3011 RMK AO2 SLP216 T10031064

More Conditions Fewer Conditions

Pressure 30.17 in
Visibility 10.0 miles
Clouds Clear
Windchill 34 °F
Dew Point 24 °F
Humidity 66%
Rainfall 0.00 in
Snow Depth Not available.
UV 2 out of 12
Pollen .10 out of 12
Air Quality Not available.
Flu Activity Not available.
METAR KOFF 281958Z AUTO 17004KT 10SM CLR 00/M06 A3011 RMK AO2 SLP216 T10031064

More Conditions Fewer Conditions

10-Day Weather Forecast

Almanac

Astronomy

Dec. 28, 2014 Rise Set
Actual Time
Civil Twilight
Nautical Twilight
Astronomical Twilight
Moon
Length of Visible Light
Length of Day
Tomorrow will be .
, % of the Moon is Illuminated

Today's Extremes

State Highs State Lows

Community

WunderPhotos

Upload Photos

1,781,414 photos uploaded!

WunderBlogs® & News

Nearby

Air Quality

  Air Quality AQ Index Pollutant
Not available.

Snow Depth

Station Depth Elevation

Earthquake Activity

City Distance Mag. Time & Date
Minimum magnitude displayed is 2.5.

Coastal Water Temperatures

Place Temperature

Nearby Weather Stations